Time;durP1;ratioP1;P1;durP2;ratioP2;P2;SDS_P1;SDS_P2;PMS_P1;PMS_P2;Temp;Humidity;BMP_temperature;BMP_pressure;BME280_temperature;BME280_humidity;BME280_pressure;Samples;Min_cycle;Max_cycle;Signal;HPM_P1;HPM_P2
2022/12/04 00:01:11;;;;;;;19.45;12.85;;;3.20;97.90;;;;;;4956984;29;20660;-65
2022/12/04 00:03:38;;;;;;;20.40;12.43;;;3.30;97.70;;;;;;4956258;29;20198;-65
2022/12/04 00:06:08;;;;;;;20.90;13.02;;;3.30;97.50;;;;;;4957130;29;20216;-65
2022/12/04 00:08:35;;;;;;;18.50;11.40;;;3.30;97.30;;;;;;4956795;29;20280;-65
2022/12/04 00:11:04;;;;;;;16.50;10.73;;;3.30;97.30;;;;;;4957058;28;20198;-65
2022/12/04 00:13:34;;;;;;;16.83;10.23;;;3.30;97.20;;;;;;4954156;29;20323;-66
2022/12/04 00:16:03;;;;;;;19.00;11.75;;;3.30;97.10;;;;;;4956887;29;20289;-65
2022/12/04 00:18:31;;;;;;;16.73;12.02;;;3.30;97.10;;;;;;4956412;29;20577;-65
2022/12/04 00:20:58;;;;;;;18.23;11.68;;;3.40;97.00;;;;;;4956867;29;20190;-65
2022/12/04 00:23:26;;;;;;;19.27;11.80;;;3.40;97.00;;;;;;4956199;29;20244;-66
2022/12/04 00:25:59;;;;;;;19.48;12.45;;;3.40;97.00;;;;;;4956262;29;20190;-65
2022/12/04 00:28:28;;;;;;;15.43;10.25;;;3.40;97.00;;;;;;4956298;29;20229;-65
2022/12/04 00:30:57;;;;;;;24.08;10.07;;;3.40;96.90;;;;;;4956029;29;20281;-66
2022/12/04 00:33:29;;;;;;;16.58;10.90;;;3.40;96.70;;;;;;4956591;29;20558;-66
2022/12/04 00:36:01;;;;;;;15.38;10.90;;;3.40;96.80;;;;;;4955997;29;20185;-65
2022/12/04 00:38:33;;;;;;;18.17;10.98;;;3.40;96.90;;;;;;4956380;29;20236;-66
2022/12/04 00:41:00;;;;;;;19.00;10.95;;;3.40;96.80;;;;;;4955345;28;20186;-65
2022/12/04 00:43:28;;;;;;;17.90;12.20;;;3.40;96.80;;;;;;4955961;29;20198;-65
2022/12/04 00:45:57;;;;;;;16.60;12.02;;;3.40;96.70;;;;;;4956322;29;20269;-65
2022/12/04 00:48:27;;;;;;;18.13;11.50;;;3.30;96.70;;;;;;4956415;29;20265;-65
2022/12/04 00:50:54;;;;;;;17.48;11.20;;;3.30;96.90;;;;;;4955776;29;20190;-65
2022/12/04 00:53:22;;;;;;;19.70;11.98;;;3.30;96.90;;;;;;4956100;29;20352;-65
2022/12/04 00:55:49;;;;;;;15.18;10.02;;;3.30;97.00;;;;;;4956181;29;20676;-65
2022/12/04 00:58:17;;;;;;;19.63;11.25;;;3.30;96.90;;;;;;4955733;29;20194;-65
2022/12/04 01:00:44;;;;;;;16.80;11.35;;;3.30;97.00;;;;;;4956312;29;20678;-65
2022/12/04 01:03:13;;;;;;;16.02;10.07;;;3.20;97.10;;;;;;4955724;29;20198;-65
2022/12/04 01:05:41;;;;;;;16.98;10.73;;;3.20;97.30;;;;;;4936807;29;20231;-65
2022/12/04 01:08:10;;;;;;;18.42;11.43;;;3.20;97.30;;;;;;4936737;29;20230;-65
2022/12/04 01:10:41;;;;;;;11.73;8.48;;;3.20;97.50;;;;;;4955404;29;20197;-65
2022/12/04 01:13:09;;;;;;;15.02;10.50;;;3.20;97.20;;;;;;4955981;29;20253;-65
2022/12/04 01:15:39;;;;;;;14.73;8.80;;;3.20;96.90;;;;;;4955403;29;20197;-65
2022/12/04 01:18:06;;;;;;;14.43;9.93;;;3.20;96.90;;;;;;4955789;29;20194;-65
2022/12/04 01:20:35;;;;;;;17.38;10.80;;;3.20;97.00;;;;;;4955735;29;20190;-65
2022/12/04 01:23:02;;;;;;;19.05;11.80;;;3.10;97.00;;;;;;4955429;29;20684;-65
2022/12/04 01:25:35;;;;;;;17.90;10.57;;;3.10;97.10;;;;;;4955749;29;20198;-65
2022/12/04 01:28:02;;;;;;;16.10;11.30;;;3.20;97.20;;;;;;4954796;29;20339;-65
2022/12/04 01:30:29;;;;;;;17.08;10.57;;;3.20;97.30;;;;;;4955673;29;20200;-65
2022/12/04 01:32:58;;;;;;;14.68;10.20;;;3.20;97.20;;;;;;4955336;29;20193;-65
2022/12/04 01:35:25;;;;;;;14.15;9.25;;;3.30;97.20;;;;;;4955685;29;20196;-65
2022/12/04 01:37:54;;;;;;;17.02;10.25;;;3.30;97.00;;;;;;4955020;29;20226;-65
2022/12/04 01:40:22;;;;;;;23.15;11.27;;;3.40;97.00;;;;;;4955381;29;20198;-66
2022/12/04 01:42:49;;;;;;;15.80;10.60;;;3.30;96.80;;;;;;4955269;29;20642;-65
2022/12/04 01:45:43;;;;;;;16.65;10.13;;;3.40;96.90;;;;;;4955184;29;20194;-65
2022/12/04 01:48:18;;;;;;;15.75;10.02;;;3.40;96.90;;;;;;4909957;29;20229;-65
2022/12/04 01:50:48;;;;;;;17.95;11.30;;;3.40;96.70;;;;;;4955015;29;20240;-65
2022/12/04 01:53:17;;;;;;;16.13;10.52;;;3.40;96.70;;;;;;4954292;28;20200;-65
2022/12/04 01:55:46;;;;;;;16.88;11.43;;;3.30;96.80;;;;;;4954888;29;20198;-65
2022/12/04 01:58:15;;;;;;;16.48;10.77;;;3.40;96.90;;;;;;4955190;29;20205;-66
2022/12/04 02:00:44;;;;;;;17.00;10.55;;;3.40;96.90;;;;;;4954687;29;20190;-65
2022/12/04 02:03:14;;;;;;;18.67;10.50;;;3.40;97.40;;;;;;4954867;29;20252;-65
2022/12/04 02:05:42;;;;;;;14.63;10.00;;;3.50;97.00;;;;;;4954683;28;20284;-66
2022/12/04 02:08:09;;;;;;;17.75;10.88;;;3.40;96.90;;;;;;4954861;29;20251;-66
2022/12/04 02:11:04;;;;;;;13.82;8.48;;;3.50;96.90;;;;;;4954522;29;20552;-66
2022/12/04 02:13:37;;;;;;;17.95;10.05;;;3.50;97.00;;;;;;4954893;29;20201;-65
2022/12/04 02:16:16;;;;;;;13.13;9.20;;;3.50;96.60;;;;;;4954480;29;20182;-66
2022/12/04 02:18:54;;;;;;;20.02;11.95;;;3.50;96.50;;;;;;4954333;29;20276;-65
2022/12/04 02:21:28;;;;;;;20.27;10.45;;;3.50;96.50;;;;;;4953012;29;20193;-65
2022/12/04 02:24:33;;;;;;;16.83;9.45;;;3.40;96.50;;;;;;4954198;29;20692;-65
2022/12/04 02:27:05;;;;;;;16.52;10.32;;;3.50;96.70;;;;;;4924725;28;20308;-65
2022/12/04 02:29:40;;;;;;;17.95;10.40;;;3.50;96.70;;;;;;4954018;29;20198;-66
2022/12/04 02:32:25;;;;;;;15.77;11.25;;;3.50;96.70;;;;;;4954171;29;20189;-66
2022/12/04 02:34:59;;;;;;;16.55;11.05;;;3.50;96.70;;;;;;4954554;29;20252;-66
2022/12/04 02:37:31;;;;;;;13.00;9.07;;;3.50;96.60;;;;;;4954440;29;20292;-65
2022/12/04 02:40:04;;;;;;;14.73;9.65;;;3.60;96.40;;;;;;4954238;29;20194;-65
2022/12/04 02:42:40;;;;;;;15.77;9.77;;;3.50;96.40;;;;;;4954224;29;20522;-65
2022/12/04 02:45:13;;;;;;;16.48;10.82;;;3.50;96.30;;;;;;4953820;29;20264;-65
2022/12/04 02:47:45;;;;;;;15.35;10.73;;;3.50;96.30;;;;;;4954135;29;20888;-65
2022/12/04 02:50:15;;;;;;;16.98;10.55;;;3.50;96.30;;;;;;4953749;29;20194;-65
2022/12/04 02:52:48;;;;;;;18.42;11.02;;;3.50;96.30;;;;;;4952356;29;20276;-65
2022/12/04 02:55:20;;;;;;;15.02;9.63;;;3.50;96.40;;;;;;4953791;29;20204;-66
2022/12/04 02:57:55;;;;;;;15.77;10.65;;;3.50;96.40;;;;;;4951487;29;20637;-66
2022/12/04 03:00:25;;;;;;;14.02;10.43;;;3.50;96.20;;;;;;4954283;29;20237;-66
2022/12/04 03:02:57;;;;;;;15.82;10.23;;;3.60;96.20;;;;;;4952814;28;20208;-65
2022/12/04 03:05:28;;;;;;;16.98;12.20;;;3.60;96.20;;;;;;4953797;29;20225;-65
2022/12/04 03:08:00;;;;;;;14.95;9.95;;;3.50;96.30;;;;;;4953697;29;20298;-65
2022/12/04 03:10:32;;;;;;;17.00;11.15;;;3.50;96.20;;;;;;4954072;29;20559;-65
2022/12/04 03:13:07;;;;;;;15.65;10.98;;;3.50;96.20;;;;;;4953582;29;20198;-65
2022/12/04 03:15:43;;;;;;;17.55;11.10;;;3.50;96.30;;;;;;4953663;29;20194;-65
2022/12/04 03:18:17;;;;;;;15.05;10.63;;;3.50;96.50;;;;;;4953411;29;20664;-65
2022/12/04 03:20:46;;;;;;;15.48;10.30;;;3.40;96.60;;;;;;4954040;29;20224;-65
2022/12/04 03:23:21;;;;;;;15.05;10.60;;;3.40;96.70;;;;;;4953295;29;20267;-65
2022/12/04 03:25:56;;;;;;;18.27;10.88;;;3.40;96.70;;;;;;4950552;29;20641;-65
2022/12/04 03:28:31;;;;;;;16.65;10.07;;;3.50;96.80;;;;;;4953317;29;20235;-65
2022/12/04 03:31:04;;;;;;;17.58;10.32;;;3.40;96.80;;;;;;4953936;29;20201;-65
2022/12/04 03:33:38;;;;;;;12.77;9.88;;;3.50;96.90;;;;;;4953065;29;20190;-66
2022/12/04 03:36:14;;;;;;;16.50;10.75;;;3.50;96.90;;;;;;4953617;29;20193;-65
2022/12/04 03:38:47;;;;;;;14.23;9.18;;;3.50;96.70;;;;;;4953197;29;20221;-66
2022/12/04 03:41:20;;;;;;;16.83;10.02;;;3.50;96.80;;;;;;4953912;29;20568;-65
2022/12/04 03:43:52;;;;;;;16.25;10.68;;;3.50;96.70;;;;;;4953786;29;20507;-66
2022/12/04 03:46:27;;;;;;;14.75;8.93;;;3.50;96.50;;;;;;4953938;29;20233;-65
2022/12/04 03:49:00;;;;;;;17.20;11.68;;;3.40;96.50;;;;;;4953199;29;20225;-66
2022/12/04 03:51:36;;;;;;;14.82;9.45;;;3.40;96.60;;;;;;4953373;29;20190;-66
2022/12/04 03:54:13;;;;;;;15.93;9.60;;;3.50;96.60;;;;;;4953651;29;20212;-65
2022/12/04 03:56:45;;;;;;;14.98;9.65;;;3.50;96.30;;;;;;4953426;29;20691;-65
2022/12/04 03:59:17;;;;;;;12.57;9.02;;;3.40;96.50;;;;;;4953083;29;20186;-65
2022/12/04 04:01:49;;;;;;;15.45;10.25;;;3.50;96.60;;;;;;4953258;29;20200;-65
2022/12/04 04:04:23;;;;;;;17.23;11.30;;;3.50;96.90;;;;;;4953876;29;20230;-66
2022/12/04 04:06:55;;;;;;;17.40;10.18;;;3.50;96.50;;;;;;4953304;29;20186;-66
2022/12/04 04:09:26;;;;;;;15.45;9.40;;;3.40;96.60;;;;;;4953691;29;20228;-66
2022/12/04 04:12:03;;;;;;;12.40;9.30;;;3.30;96.50;;;;;;4953454;29;20709;-65
2022/12/04 04:26:11;;;;;;;15.95;10.85;;;3.20;96.90;;;;;;4923493;29;20257;-65
2022/12/04 04:28:40;;;;;;;13.32;8.88;;;3.20;96.80;;;;;;4955150;29;20229;-65
2022/12/04 04:31:17;;;;;;;13.15;8.95;;;3.20;96.70;;;;;;4956740;29;20213;-65
2022/12/04 04:33:57;;;;;;;13.13;8.93;;;3.20;97.00;;;;;;4955805;29;20197;-65
2022/12/04 04:36:43;;;;;;;19.23;11.35;;;3.10;97.00;;;;;;4956515;29;20553;-65
2022/12/04 04:39:19;;;;;;;16.67;11.38;;;3.10;97.20;;;;;;4937513;29;20208;-65
2022/12/04 04:41:51;;;;;;;15.13;9.65;;;3.10;97.20;;;;;;4937949;29;20261;-65
2022/12/04 04:44:28;;;;;;;12.85;9.45;;;3.10;97.30;;;;;;4956784;29;20280;-65
2022/12/04 04:47:02;;;;;;;16.60;9.32;;;3.10;97.30;;;;;;4956251;29;20198;-65
2022/12/04 04:49:34;;;;;;;13.73;8.95;;;3.20;97.40;;;;;;4956267;29;20268;-66
2022/12/04 04:52:07;;;;;;;13.85;8.98;;;3.20;97.20;;;;;;4955950;29;20186;-65
2022/12/04 04:54:36;;;;;;;19.40;9.15;;;3.30;97.20;;;;;;4956386;29;20677;-66
2022/12/04 04:57:04;;;;;;;13.13;8.75;;;3.30;97.10;;;;;;4955737;29;20695;-66
2022/12/04 04:59:33;;;;;;;13.65;8.85;;;3.30;97.00;;;;;;4956167;29;20189;-65
2022/12/04 05:02:00;;;;;;;15.20;10.23;;;3.40;97.00;;;;;;4956068;29;20212;-66
2022/12/04 05:04:28;;;;;;;15.45;9.23;;;3.40;96.80;;;;;;4956429;29;20237;-65
2022/12/04 05:07:09;;;;;;;14.15;8.75;;;3.40;96.60;;;;;;4956005;29;20225;-66
2022/12/04 05:09:36;;;;;;;12.50;7.90;;;3.40;96.70;;;;;;4956201;29;20612;-66
2022/12/04 05:12:05;;;;;;;14.13;8.95;;;3.40;96.50;;;;;;4955987;29;20656;-66
2022/12/04 05:14:32;;;;;;;12.60;8.30;;;3.40;96.30;;;;;;4955603;29;20189;-66
2022/12/04 05:16:59;;;;;;;12.15;7.93;;;3.40;96.30;;;;;;4956034;29;20201;-65
2022/12/04 05:22:13;;;;;;;13.60;7.85;;;3.30;96.40;;;;;;4955996;29;20357;-66
2022/12/04 05:24:40;;;;;;;12.55;7.80;;;3.30;96.60;;;;;;4955621;29;20206;-65
2022/12/04 05:27:07;;;;;;;12.48;8.07;;;3.20;96.70;;;;;;4955888;28;20190;-66
2022/12/04 05:29:35;;;;;;;11.10;7.57;;;3.20;96.60;;;;;;4955318;29;20559;-65
2022/12/04 05:32:02;;;;;;;15.10;8.52;;;3.20;96.60;;;;;;4953601;29;20675;-66
2022/12/04 05:34:31;;;;;;;10.13;6.97;;;3.20;96.70;;;;;;4955452;29;20198;-65
2022/12/04 05:36:58;;;;;;;12.35;8.60;;;3.20;96.70;;;;;;4955799;29;20213;-65
2022/12/04 05:39:26;;;;;;;14.18;9.00;;;3.20;96.90;;;;;;4955036;29;20192;-65
2022/12/04 05:41:54;;;;;;;15.10;8.75;;;3.20;96.80;;;;;;4955851;29;20257;-66
2022/12/04 05:44:23;;;;;;;13.68;9.38;;;3.10;97.00;;;;;;4955283;29;20197;-66
2022/12/04 05:46:53;;;;;;;11.93;8.70;;;3.10;97.10;;;;;;4955723;29;20198;-65
2022/12/04 05:49:21;;;;;;;12.95;8.50;;;3.00;97.30;;;;;;4954978;29;20234;-65
2022/12/04 05:51:53;;;;;;;13.38;8.70;;;3.00;97.50;;;;;;4955467;29;20558;-66
2022/12/04 05:54:20;;;;;;;10.15;7.60;;;2.90;97.60;;;;;;4955024;29;20615;-65
2022/12/04 05:56:54;;;;;;;11.68;8.07;;;2.90;97.70;;;;;;4955345;29;20193;-66
2022/12/04 05:59:22;;;;;;;14.35;8.02;;;2.90;97.80;;;;;;4954332;29;20204;-65
2022/12/04 06:01:49;;;;;;;11.40;7.68;;;2.80;97.90;;;;;;4954706;29;20652;-65
2022/12/04 06:04:16;;;;;;;13.52;9.57;;;2.90;98.00;;;;;;4954657;29;20788;-66
2022/12/04 06:06:44;;;;;;;12.15;7.60;;;2.90;98.00;;;;;;4955198;29;20190;-66
2022/12/04 06:09:12;;;;;;;14.88;9.80;;;3.00;98.00;;;;;;4954793;29;20754;-65
2022/12/04 06:11:40;;;;;;;12.63;8.38;;;3.00;97.80;;;;;;4939575;29;20185;-66
2022/12/04 06:14:12;;;;;;;14.90;9.82;;;3.00;97.90;;;;;;4954781;29;20190;-66
2022/12/04 06:16:41;;;;;;;11.75;7.93;;;3.00;97.50;;;;;;4954895;29;20217;-66
2022/12/04 06:19:13;;;;;;;11.48;7.95;;;3.10;97.70;;;;;;4954764;29;20259;-65
2022/12/04 06:21:42;;;;;;;13.80;8.50;;;3.00;97.60;;;;;;4954612;29;20225;-65
2022/12/04 06:24:13;;;;;;;14.45;9.35;;;3.00;97.70;;;;;;4954847;29;20202;-66
2022/12/04 06:26:40;;;;;;;13.13;8.65;;;3.10;97.80;;;;;;4954657;29;20202;-65
2022/12/04 06:29:11;;;;;;;14.52;9.43;;;3.10;97.80;;;;;;4954363;29;20314;-65
2022/12/04 06:31:40;;;;;;;15.30;9.43;;;3.10;97.90;;;;;;4954716;29;20248;-65
2022/12/04 06:34:08;;;;;;;18.25;10.65;;;3.10;97.80;;;;;;4954604;29;20657;-66
2022/12/04 06:36:36;;;;;;;13.07;9.93;;;3.10;97.90;;;;;;4954237;29;20284;-65
2022/12/04 06:39:03;;;;;;;17.30;10.18;;;3.20;98.00;;;;;;4954446;29;20595;-66
2022/12/04 06:41:31;;;;;;;13.20;10.05;;;3.20;97.80;;;;;;4954485;29;20202;-66
2022/12/04 06:43:58;;;;;;;21.38;11.93;;;3.20;97.90;;;;;;4954779;29;20197;-66
2022/12/04 06:46:29;;;;;;;22.17;13.30;;;3.20;97.90;;;;;;4954219;29;20581;-66
2022/12/04 06:49:02;;;;;;;16.70;10.52;;;3.30;97.90;;;;;;4953998;29;20214;-66
2022/12/04 06:51:31;;;;;;;22.10;12.98;;;3.30;97.80;;;;;;4953925;29;20196;-66
2022/12/04 06:53:59;;;;;;;23.13;13.20;;;3.30;97.80;;;;;;4950486;28;20597;-66
2022/12/04 06:56:28;;;;;;;17.90;11.32;;;3.40;97.70;;;;;;4951542;29;20533;-66
2022/12/04 06:58:58;;;;;;;13.77;10.80;;;3.40;97.70;;;;;;4952206;29;20557;-66
2022/12/04 07:01:29;;;;;;;15.55;10.30;;;3.50;97.70;;;;;;4952235;29;20220;-66
2022/12/04 07:03:57;;;;;;;13.68;9.93;;;3.50;97.70;;;;;;4952432;29;20221;-66
2022/12/04 07:06:27;;;;;;;19.52;13.13;;;3.50;97.60;;;;;;4952408;29;20284;-66
2022/12/04 07:08:57;;;;;;;16.90;10.13;;;3.50;97.40;;;;;;4952659;29;20688;-66
2022/12/04 07:11:30;;;;;;;18.30;11.63;;;3.50;97.50;;;;;;4952564;29;20189;-65
2022/12/04 07:14:02;;;;;;;16.88;10.50;;;3.50;97.50;;;;;;4951987;29;20224;-65
2022/12/04 07:16:32;;;;;;;12.10;8.07;;;3.60;97.50;;;;;;4952592;29;20552;-66
2022/12/04 07:19:03;;;;;;;13.20;8.88;;;3.60;97.50;;;;;;4952237;29;20225;-65
2022/12/04 07:21:32;;;;;;;16.80;10.90;;;3.70;97.40;;;;;;4952326;29;20197;-65
2022/12/04 07:24:01;;;;;;;14.63;10.57;;;3.70;97.40;;;;;;4952636;29;20190;-65
2022/12/04 07:26:30;;;;;;;16.70;10.18;;;3.70;97.30;;;;;;4951784;29;20217;-67
2022/12/04 07:29:00;;;;;;;14.85;10.55;;;3.80;97.40;;;;;;4952805;29;20225;-65
2022/12/04 07:31:29;;;;;;;17.35;11.13;;;3.80;97.30;;;;;;4952231;29;20229;-66
2022/12/04 07:33:59;;;;;;;17.17;10.95;;;3.90;97.20;;;;;;4951605;29;20197;-65
2022/12/04 07:36:27;;;;;;;12.82;8.90;;;3.90;97.00;;;;;;4952231;29;20213;-65
2022/12/04 07:38:56;;;;;;;21.25;10.80;;;3.90;96.90;;;;;;4952634;29;20205;-65
2022/12/04 07:41:23;;;;;;;14.40;9.48;;;3.90;97.00;;;;;;4951865;29;20197;-65
2022/12/04 07:43:51;;;;;;;13.40;9.30;;;4.00;97.00;;;;;;4952535;29;20190;-65
2022/12/04 07:46:24;;;;;;;14.85;9.57;;;4.00;96.90;;;;;;4952264;29;20205;-66
2022/12/04 07:48:52;;;;;;;12.52;9.32;;;4.00;96.70;;;;;;4951735;29;20222;-65
2022/12/04 07:51:26;;;;;;;14.38;10.38;;;4.10;96.60;;;;;;4950772;29;20208;-66
2022/12/04 07:53:57;;;;;;;13.65;9.30;;;4.10;96.50;;;;;;4955747;29;20186;-66
2022/12/04 07:56:30;;;;;;;14.18;9.60;;;4.10;96.10;;;;;;4955422;29;20241;-66
2022/12/04 07:58:58;;;;;;;16.17;9.60;;;4.10;96.20;;;;;;4955455;29;20205;-65
2022/12/04 08:01:28;;;;;;;13.00;9.63;;;4.10;96.10;;;;;;4955348;29;20245;-65
2022/12/04 08:04:00;;;;;;;16.25;11.32;;;4.20;96.10;;;;;;4955113;29;20229;-65
2022/12/04 08:06:30;;;;;;;16.27;10.98;;;4.10;95.80;;;;;;4955531;29;20783;-65
2022/12/04 08:08:57;;;;;;;15.93;9.60;;;4.10;95.80;;;;;;4955517;29;20244;-65
2022/12/04 08:11:27;;;;;;;15.20;9.40;;;4.10;95.90;;;;;;4953027;29;20229;-66
2022/12/04 08:14:01;;;;;;;15.18;9.13;;;4.10;95.80;;;;;;4955469;29;20202;-66
2022/12/04 08:16:30;;;;;;;13.60;9.32;;;4.10;95.80;;;;;;4955211;29;20189;-66
2022/12/04 08:19:04;;;;;;;15.00;9.13;;;4.10;96.00;;;;;;4951761;29;20201;-65
2022/12/04 08:21:33;;;;;;;15.68;10.48;;;4.20;96.10;;;;;;4955059;29;20649;-66
2022/12/04 08:24:01;;;;;;;13.10;8.52;;;4.20;96.00;;;;;;4955481;29;20201;-65
2022/12/04 08:26:30;;;;;;;15.43;11.75;;;4.20;96.10;;;;;;4951167;29;20198;-65
2022/12/04 08:29:00;;;;;;;13.43;9.15;;;4.20;95.70;;;;;;4954894;29;20221;-65
2022/12/04 08:31:33;;;;;;;12.63;9.20;;;4.10;95.70;;;;;;4955540;29;20193;-65
2022/12/04 08:34:02;;;;;;;11.75;8.80;;;4.10;95.60;;;;;;4954937;29;20202;-66
2022/12/04 08:36:44;;;;;;;14.23;9.75;;;4.10;95.60;;;;;;4955417;29;20286;-66
2022/12/04 08:39:13;;;;;;;14.90;9.98;;;4.10;95.70;;;;;;4954622;29;20193;-66
2022/12/04 08:41:41;;;;;;;14.27;8.88;;;4.00;95.50;;;;;;4951739;28;20324;-65
2022/12/04 08:44:10;;;;;;;14.27;8.45;;;4.00;95.80;;;;;;4953439;29;20197;-65
2022/12/04 08:46:38;;;;;;;12.70;9.13;;;4.10;95.80;;;;;;4953902;29;20283;-65
2022/12/04 08:49:05;;;;;;;12.77;8.70;;;4.10;95.70;;;;;;4953603;29;20265;-65
2022/12/04 08:51:34;;;;;;;13.07;9.95;;;4.10;96.10;;;;;;4951146;29;20198;-65
2022/12/04 08:54:05;;;;;;;13.07;9.13;;;4.20;96.00;;;;;;4953802;29;20226;-65
2022/12/04 08:56:34;;;;;;;12.40;8.38;;;4.30;96.10;;;;;;4954274;29;20197;-66
2022/12/04 08:59:04;;;;;;;15.75;10.15;;;4.30;96.20;;;;;;4953265;29;20641;-66
2022/12/04 09:01:31;;;;;;;14.88;11.10;;;4.40;96.00;;;;;;4953490;28;20233;-66
2022/12/04 09:03:59;;;;;;;15.77;11.07;;;4.50;95.90;;;;;;4953244;29;20280;-66
2022/12/04 09:06:27;;;;;;;12.60;9.73;;;4.50;95.60;;;;;;4953852;29;20194;-66
2022/12/04 09:08:55;;;;;;;13.70;9.18;;;4.50;95.50;;;;;;4954572;29;20308;-66
2022/12/04 09:11:27;;;;;;;16.38;10.93;;;4.50;95.60;;;;;;4954184;29;20197;-66
2022/12/04 09:13:54;;;;;;;24.42;14.00;;;4.50;95.20;;;;;;4950764;29;20214;-65
2022/12/04 09:16:23;;;;;;;18.30;10.48;;;4.50;95.10;;;;;;4953619;29;20583;-66
2022/12/04 09:18:51;;;;;;;14.38;10.20;;;4.50;95.00;;;;;;4953354;29;20244;-65
2022/12/04 09:21:20;;;;;;;14.05;9.18;;;4.50;94.80;;;;;;4953508;29;20283;-65
2022/12/04 09:23:48;;;;;;;13.80;9.40;;;4.50;95.00;;;;;;4954138;29;20260;-65
2022/12/04 09:26:22;;;;;;;16.27;8.77;;;4.60;95.10;;;;;;4952415;29;20204;-65
2022/12/04 09:28:51;;;;;;;11.15;8.70;;;4.60;95.20;;;;;;4954264;29;20197;-65
2022/12/04 09:31:20;;;;;;;13.90;9.07;;;4.60;95.00;;;;;;4953505;29;20660;-65
2022/12/04 09:33:52;;;;;;;11.50;7.53;;;4.60;94.90;;;;;;4953195;29;20197;-65
2022/12/04 09:36:25;;;;;;;11.65;8.02;;;4.60;94.80;;;;;;4950526;29;20205;-65
2022/12/04 09:38:55;;;;;;;13.27;8.73;;;4.60;94.80;;;;;;4952590;29;20202;-65
2022/12/04 09:41:53;;;;;;;13.30;8.75;;;4.70;94.60;;;;;;4953520;29;20236;-65
2022/12/04 09:44:27;;;;;;;13.20;8.77;;;4.60;94.50;;;;;;4930362;29;20223;-65
2022/12/04 09:47:02;;;;;;;13.35;9.88;;;4.70;94.50;;;;;;4953168;29;20189;-65
2022/12/04 09:49:45;;;;;;;12.57;8.77;;;4.70;94.90;;;;;;4951062;29;20221;-65
2022/12/04 09:52:35;;;;;;;13.00;9.32;;;4.70;94.60;;;;;;4952293;29;20310;-65
2022/12/04 09:55:15;;;;;;;15.55;9.10;;;4.70;94.70;;;;;;4952561;29;20610;-66
2022/12/04 09:57:53;;;;;;;14.57;9.50;;;4.70;94.40;;;;;;4952577;29;20194;-66
2022/12/04 10:00:28;;;;;;;11.93;8.88;;;4.70;94.60;;;;;;4952886;29;20284;-66
2022/12/04 10:03:02;;;;;;;12.10;9.25;;;4.70;94.70;;;;;;4952263;29;20213;-65
2022/12/04 10:05:46;;;;;;;12.30;8.05;;;4.70;94.70;;;;;;4953340;29;20255;-65
2022/12/04 10:08:19;;;;;;;14.20;9.60;;;4.80;94.70;;;;;;4953104;29;20193;-66
2022/12/04 10:11:09;;;;;;;19.67;11.07;;;4.80;94.60;;;;;;4949777;29;20232;-66
2022/12/04 10:14:00;;;;;;;17.25;10.90;;;4.90;94.80;;;;;;4952527;28;20189;-66
2022/12/04 10:16:42;;;;;;;13.70;9.43;;;4.90;94.40;;;;;;4952596;29;20275;-66
2022/12/04 10:19:38;;;;;;;15.43;9.45;;;4.90;94.30;;;;;;4953230;29;20260;-66
2022/12/04 10:22:14;;;;;;;14.80;9.77;;;5.00;94.30;;;;;;4952189;29;20245;-66
2022/12/04 10:24:53;;;;;;;15.18;10.13;;;5.00;94.10;;;;;;4951304;28;20208;-65
2022/12/04 10:27:23;;;;;;;14.55;10.70;;;5.00;94.00;;;;;;4953120;29;20204;-65
2022/12/04 10:29:55;;;;;;;14.02;9.40;;;5.00;94.00;;;;;;4952749;29;20237;-65
2022/12/04 10:32:32;;;;;;;15.73;10.32;;;5.00;94.00;;;;;;4953310;29;20205;-66
2022/12/04 10:35:15;;;;;;;14.95;9.90;;;5.00;94.10;;;;;;4952750;29;20201;-66
2022/12/04 10:37:47;;;;;;;16.55;11.30;;;5.10;93.90;;;;;;4952700;29;20284;-65
2022/12/04 10:40:21;;;;;;;18.40;12.63;;;5.10;93.70;;;;;;4952618;29;20687;-65
2022/12/04 10:42:56;;;;;;;16.40;10.20;;;5.10;93.90;;;;;;4953525;29;20237;-66
2022/12/04 10:45:26;;;;;;;14.35;9.50;;;5.10;93.80;;;;;;4952503;29;20190;-66
2022/12/04 10:47:56;;;;;;;13.52;9.45;;;5.10;93.80;;;;;;4952970;29;20653;-66
2022/12/04 10:50:24;;;;;;;16.02;9.95;;;5.10;93.70;;;;;;4952121;29;20222;-65
2022/12/04 10:52:53;;;;;;;16.10;10.18;;;5.10;93.60;;;;;;4952834;29;20186;-65
2022/12/04 10:55:29;;;;;;;15.23;10.50;;;5.10;93.60;;;;;;4953112;29;20204;-66
2022/12/04 10:57:58;;;;;;;15.60;11.48;;;5.10;93.30;;;;;;4952278;29;20194;-66
2022/12/04 11:00:41;;;;;;;15.00;9.40;;;5.20;93.60;;;;;;4952726;29;20198;-65
2022/12/04 11:03:25;;;;;;;13.00;9.88;;;5.20;93.40;;;;;;4949515;28;20182;-65
2022/12/04 11:06:00;;;;;;;13.35;9.57;;;5.20;93.70;;;;;;4951281;29;20320;-66
2022/12/04 11:08:35;;;;;;;14.38;9.85;;;5.20;93.60;;;;;;4948682;29;20288;-65
2022/12/04 11:11:11;;;;;;;14.48;10.20;;;5.30;93.60;;;;;;4948993;28;20217;-65
2022/12/04 11:13:46;;;;;;;12.02;8.50;;;5.40;93.80;;;;;;4945462;29;20287;-66
2022/12/04 11:16:37;;;;;;;12.85;9.40;;;5.40;93.40;;;;;;4950569;28;20332;-65
2022/12/04 11:19:25;;;;;;;15.30;10.23;;;5.50;93.40;;;;;;4948310;29;20193;-65
2022/12/04 11:22:01;;;;;;;20.98;13.23;;;5.60;93.00;;;;;;4950339;29;20205;-66
2022/12/04 11:24:33;;;;;;;14.38;10.52;;;5.60;93.40;;;;;;4949083;28;20319;-66
2022/12/04 11:27:08;;;;;;;24.02;16.60;;;5.70;93.10;;;;;;4955293;29;20581;-65
2022/12/04 11:29:43;;;;;;;14.68;10.65;;;5.60;92.40;;;;;;4953195;29;20213;-65
2022/12/04 11:32:21;;;;;;;16.77;9.52;;;5.70;92.70;;;;;;4954566;29;20563;-65
2022/12/04 11:34:52;;;;;;;11.80;9.57;;;5.70;92.60;;;;;;4950576;29;20209;-65
2022/12/04 11:37:22;;;;;;;13.07;8.82;;;5.70;92.50;;;;;;4952121;29;20201;-66
2022/12/04 11:39:51;;;;;;;14.25;9.38;;;5.70;92.40;;;;;;4954134;28;20615;-65
2022/12/04 11:42:26;;;;;;;14.30;9.73;;;5.60;91.90;;;;;;4951334;28;20855;-66
2022/12/04 11:44:56;;;;;;;12.07;8.98;;;5.70;92.10;;;;;;4954226;28;20212;-66
2022/12/04 11:47:27;;;;;;;18.48;12.15;;;5.70;91.80;;;;;;4954871;28;20636;-66
2022/12/04 11:50:10;;;;;;;18.38;13.82;;;5.60;91.80;;;;;;4952314;29;20658;-65
2022/12/04 11:52:58;;;;;;;17.38;12.23;;;5.60;91.60;;;;;;4954339;29;20381;-66
2022/12/04 11:55:37;;;;;;;17.27;11.68;;;5.60;91.80;;;;;;4953599;29;20198;-66
2022/12/04 11:58:34;;;;;;;12.20;8.98;;;5.60;91.90;;;;;;4954105;29;20619;-66
2022/12/04 12:01:20;;;;;;;17.10;10.85;;;5.60;91.70;;;;;;4953146;29;20205;-65
2022/12/04 12:04:04;;;;;;;14.95;9.98;;;5.60;92.00;;;;;;4950581;28;20229;-66
2022/12/04 12:06:36;;;;;;;14.93;11.20;;;5.60;92.10;;;;;;4952195;29;20301;-66
2022/12/04 12:09:25;;;;;;;16.92;9.85;;;5.60;92.10;;;;;;4950723;29;20197;-65
2022/12/04 12:12:06;;;;;;;18.05;11.45;;;5.60;92.00;;;;;;4953656;29;20197;-65
2022/12/04 12:14:46;;;;;;;17.73;12.52;;;5.60;91.90;;;;;;4953083;29;20208;-65
2022/12/04 12:17:23;;;;;;;17.83;13.65;;;5.60;91.80;;;;;;4952662;29;20210;-65
2022/12/04 12:20:05;;;;;;;22.92;13.18;;;5.60;91.90;;;;;;4954098;29;20216;-65
2022/12/04 12:23:00;;;;;;;18.02;13.98;;;5.50;91.70;;;;;;4953959;29;20551;-65
2022/12/04 12:25:40;;;;;;;16.48;11.65;;;5.50;92.00;;;;;;4953233;29;20206;-65
2022/12/04 12:28:22;;;;;;;15.98;10.30;;;5.60;92.10;;;;;;4951578;29;20206;-65
2022/12/04 12:31:13;;;;;;;16.02;11.10;;;5.50;92.00;;;;;;4952551;29;20235;-66
2022/12/04 12:33:49;;;;;;;17.67;10.88;;;5.50;92.00;;;;;;4954331;29;20290;-66
2022/12/04 12:36:20;;;;;;;15.02;10.68;;;5.50;92.00;;;;;;4951584;28;20201;-65
2022/12/04 12:38:56;;;;;;;16.38;9.60;;;5.40;92.00;;;;;;4953602;29;20205;-64
2022/12/04 12:41:29;;;;;;;19.75;12.20;;;5.50;92.20;;;;;;4953359;29;20288;-65
2022/12/04 12:44:03;;;;;;;15.60;10.48;;;5.50;92.00;;;;;;4953393;29;20615;-67
2022/12/04 12:46:35;;;;;;;15.20;10.60;;;5.40;92.00;;;;;;4952086;29;20209;-64
2022/12/04 12:49:13;;;;;;;15.20;10.25;;;5.40;92.20;;;;;;4953303;29;20198;-65
2022/12/04 12:51:47;;;;;;;12.95;8.82;;;5.40;92.10;;;;;;4953856;29;20257;-64
2022/12/04 12:54:30;;;;;;;14.20;9.93;;;5.40;92.00;;;;;;4952704;29;20208;-64
2022/12/04 12:57:16;;;;;;;18.92;11.80;;;5.40;91.90;;;;;;4947378;29;20213;-65
2022/12/04 12:59:49;;;;;;;16.77;11.13;;;5.40;91.70;;;;;;4951121;29;20206;-64
2022/12/04 13:02:25;;;;;;;17.23;10.45;;;5.40;91.80;;;;;;4955166;29;20227;-65
2022/12/04 13:04:57;;;;;;;19.02;9.38;;;5.40;91.80;;;;;;4950227;29;20236;-65
2022/12/04 13:07:31;;;;;;;12.13;8.32;;;5.40;91.90;;;;;;4954818;29;20198;-65
2022/12/04 13:10:13;;;;;;;13.98;9.55;;;5.30;91.60;;;;;;4954766;29;20539;-65
2022/12/04 13:12:44;;;;;;;13.80;9.68;;;5.30;91.70;;;;;;4954992;29;20193;-65
2022/12/04 13:15:19;;;;;;;11.43;8.07;;;5.30;91.80;;;;;;4954673;29;20193;-65
2022/12/04 13:17:49;;;;;;;11.15;7.90;;;5.30;91.80;;;;;;4955060;29;20232;-66
2022/12/04 13:20:26;;;;;;;11.68;8.20;;;5.30;91.70;;;;;;4954779;29;20268;-65
2022/12/04 13:23:10;;;;;;;13.05;8.25;;;5.30;91.60;;;;;;4954881;29;20310;-66